Time;durP1;ratioP1;P1;durP2;ratioP2;P2;SDS_P1;SDS_P2;PMS_P1;PMS_P2;Temp;Humidity;BMP_temperature;BMP_pressure;BME280_temperature;BME280_humidity;BME280_pressure;Samples;Min_cycle;Max_cycle;Signal;HPM_P1;HPM_P2
2023/11/07 00:01:28;;;;;;;767.33;342.58;;;;;;;;;;5011069;28;20057;-55
2023/11/07 00:03:54;;;;;;;653.95;340.08;;;;;;;;;;5018041;28;20485;-56
2023/11/07 00:06:19;;;;;;;855.80;359.00;;;;;;;;;;5014501;28;20107;-55
2023/11/07 00:08:45;;;;;;;615.60;324.75;;;;;;;;;;5018028;28;20452;-56
2023/11/07 00:11:11;;;;;;;620.90;329.67;;;;;;;;;;5015999;28;20033;-56
2023/11/07 00:13:36;;;;;;;680.25;336.85;;;;;;;;;;5016115;28;20032;-56
2023/11/07 00:16:01;;;;;;;608.92;316.00;;;;;;;;;;5016359;28;20472;-55
2023/11/07 00:18:26;;;;;;;763.60;328.00;;;;;;;;;;5014884;28;20076;-55
2023/11/07 00:20:52;;;;;;;694.70;335.15;;;;;;;;;;5016683;28;20080;-56
2023/11/07 00:23:17;;;;;;;768.42;349.65;;;;;;;;;;5014693;28;20036;-56
2023/11/07 00:25:42;;;;;;;613.50;331.63;;;;;;;;;;5018351;28;20029;-55
2023/11/07 00:28:08;;;;;;;627.83;307.80;;;;;;;;;;5018207;28;20300;-54
2023/11/07 00:30:33;;;;;;;601.10;284.17;;;;;;;;;;5013909;28;20030;-55
2023/11/07 00:32:58;;;;;;;565.63;284.77;;;;;;;;;;5015543;28;20031;-55
2023/11/07 00:35:23;;;;;;;791.95;312.35;;;;;;;;;;5012753;28;20359;-55
2023/11/07 00:37:50;;;;;;;592.90;306.88;;;;;;;;;;5015925;28;20026;-55
2023/11/07 00:40:15;;;;;;;614.30;298.10;;;;;;;;;;5014404;28;20393;-55
2023/11/07 00:42:41;;;;;;;651.92;315.00;;;;;;;;;;5015975;28;20092;-55
2023/11/07 00:45:06;;;;;;;576.92;301.65;;;;;;;;;;5016692;28;20457;-55
2023/11/07 00:47:31;;;;;;;704.38;315.92;;;;;;;;;;5015062;28;20587;-55
2023/11/07 00:49:56;;;;;;;598.50;307.10;;;;;;;;;;5016203;28;20021;-55
2023/11/07 00:52:22;;;;;;;765.20;328.77;;;;;;;;;;5012920;28;20292;-55
2023/11/07 00:54:47;;;;;;;610.50;317.58;;;;;;;;;;5015128;28;20029;-54
2023/11/07 00:57:12;;;;;;;661.33;324.83;;;;;;;;;;5014427;28;20098;-55
2023/11/07 00:59:37;;;;;;;588.85;322.05;;;;;;;;;;5013616;28;20260;-55
2023/11/07 01:02:03;;;;;;;658.97;324.75;;;;;;;;;;5015512;28;20056;-55
2023/11/07 01:04:28;;;;;;;730.53;334.60;;;;;;;;;;5015423;28;20138;-54
2023/11/07 01:06:53;;;;;;;684.88;333.30;;;;;;;;;;5014376;28;20057;-56
2023/11/07 01:09:19;;;;;;;826.45;344.90;;;;;;;;;;5006942;28;20022;-55
2023/11/07 01:11:44;;;;;;;660.45;345.38;;;;;;;;;;5014690;28;20038;-55
2023/11/07 01:14:09;;;;;;;672.88;344.48;;;;;;;;;;5014136;28;20026;-55
2023/11/07 01:16:35;;;;;;;686.42;346.23;;;;;;;;;;5012969;28;20038;-55
2023/11/07 01:19:00;;;;;;;614.72;348.98;;;;;;;;;;5016787;28;20033;-55
2023/11/07 01:21:26;;;;;;;699.22;360.13;;;;;;;;;;5013259;28;20480;-54
2023/11/07 01:23:51;;;;;;;693.60;357.80;;;;;;;;;;5015559;28;20064;-56
2023/11/07 01:26:16;;;;;;;644.13;356.57;;;;;;;;;;5015330;28;20037;-54
2023/11/07 01:28:42;;;;;;;599.47;333.58;;;;;;;;;;5017139;28;20592;-55
2023/11/07 01:31:08;;;;;;;658.67;311.23;;;;;;;;;;5014062;28;20418;-55
2023/11/07 01:33:34;;;;;;;733.92;338.67;;;;;;;;;;5015560;28;20021;-55
2023/11/07 01:35:59;;;;;;;593.72;329.13;;;;;;;;;;5015516;28;20065;-56
2023/11/07 01:38:25;;;;;;;807.20;337.50;;;;;;;;;;5014702;28;20060;-55
2023/11/07 01:40:50;;;;;;;569.67;293.90;;;;;;;;;;5015854;28;20052;-55
2023/11/07 01:43:16;;;;;;;602.50;299.20;;;;;;;;;;5017463;28;20489;-56
2023/11/07 01:45:41;;;;;;;629.95;302.55;;;;;;;;;;5015435;28;20132;-55
2023/11/07 01:48:08;;;;;;;575.05;309.25;;;;;;;;;;5016652;28;20592;-55
2023/11/07 01:50:34;;;;;;;766.85;339.95;;;;;;;;;;5014664;28;20033;-55
2023/11/07 01:53:01;;;;;;;626.42;324.80;;;;;;;;;;5017196;28;20029;-55
2023/11/07 01:55:26;;;;;;;714.33;323.65;;;;;;;;;;5014004;28;20533;-55
2023/11/07 01:57:52;;;;;;;619.45;333.63;;;;;;;;;;5016365;28;20029;-54
2023/11/07 02:00:18;;;;;;;679.55;347.17;;;;;;;;;;5014786;28;20029;-54
2023/11/07 02:02:43;;;;;;;601.05;343.38;;;;;;;;;;5017223;28;20041;-55
2023/11/07 02:05:12;;;;;;;621.90;328.60;;;;;;;;;;5015820;28;20128;-55
2023/11/07 02:07:37;;;;;;;619.88;340.30;;;;;;;;;;5014324;28;20053;-55
2023/11/07 02:10:04;;;;;;;606.85;334.23;;;;;;;;;;5015947;28;20057;-55
2023/11/07 02:12:30;;;;;;;756.13;352.25;;;;;;;;;;5013535;28;20547;-55
2023/11/07 02:14:56;;;;;;;618.95;341.58;;;;;;;;;;5016532;28;20568;-55
2023/11/07 02:17:21;;;;;;;666.88;341.67;;;;;;;;;;5015079;28;20535;-55
2023/11/07 02:19:46;;;;;;;685.03;349.27;;;;;;;;;;5015570;28;20421;-55
2023/11/07 02:22:13;;;;;;;639.47;348.90;;;;;;;;;;5014620;28;20041;-55
2023/11/07 02:24:38;;;;;;;633.50;352.08;;;;;;;;;;5014724;28;20061;-55
2023/11/07 02:27:04;;;;;;;720.50;360.40;;;;;;;;;;5014107;28;20066;-55
2023/11/07 02:29:29;;;;;;;691.45;363.88;;;;;;;;;;5016909;28;20033;-55
2023/11/07 02:31:56;;;;;;;632.15;357.02;;;;;;;;;;5016046;28;20048;-56
2023/11/07 02:34:21;;;;;;;751.38;369.60;;;;;;;;;;5014470;28;20240;-55
2023/11/07 02:36:46;;;;;;;660.45;364.13;;;;;;;;;;5013631;28;20068;-56
2023/11/07 02:39:12;;;;;;;630.78;360.38;;;;;;;;;;5016194;28;20440;-55
2023/11/07 02:41:38;;;;;;;679.75;371.40;;;;;;;;;;5012934;28;20631;-56
2023/11/07 02:44:03;;;;;;;653.75;366.20;;;;;;;;;;5015459;28;20505;-56
2023/11/07 02:46:28;;;;;;;727.85;376.10;;;;;;;;;;5012962;28;20413;-55
2023/11/07 02:48:54;;;;;;;637.27;353.67;;;;;;;;;;5014925;28;20021;-55
2023/11/07 02:51:19;;;;;;;640.45;356.58;;;;;;;;;;5014683;28;20272;-56
2023/11/07 02:53:47;;;;;;;647.72;352.75;;;;;;;;;;5015978;28;20713;-55
2023/11/07 02:56:13;;;;;;;626.20;357.13;;;;;;;;;;5015264;28;20132;-55
2023/11/07 02:58:38;;;;;;;630.67;361.77;;;;;;;;;;5014433;28;20160;-55
2023/11/07 03:01:04;;;;;;;649.35;344.17;;;;;;;;;;5014888;28;20045;-55
2023/11/07 03:03:30;;;;;;;707.45;346.00;;;;;;;;;;5015626;28;20384;-55
2023/11/07 03:05:55;;;;;;;598.00;328.17;;;;;;;;;;5015157;28;20137;-56
2023/11/07 03:08:21;;;;;;;723.45;367.65;;;;;;;;;;5013237;28;20337;-55
2023/11/07 03:10:46;;;;;;;636.63;364.55;;;;;;;;;;5014834;28;20053;-55
2023/11/07 03:13:13;;;;;;;614.80;343.85;;;;;;;;;;5015946;28;20075;-55
2023/11/07 03:15:38;;;;;;;738.58;342.98;;;;;;;;;;5013367;28;20038;-54
2023/11/07 03:18:04;;;;;;;605.17;321.83;;;;;;;;;;5014552;28;20028;-56
2023/11/07 03:20:29;;;;;;;639.00;330.40;;;;;;;;;;5013831;28;20029;-56
2023/11/07 03:22:54;;;;;;;707.40;347.70;;;;;;;;;;5014212;28;20033;-56
2023/11/07 03:25:19;;;;;;;630.90;351.48;;;;;;;;;;5013548;28;20041;-56
2023/11/07 03:27:45;;;;;;;604.92;309.08;;;;;;;;;;5014895;28;20025;-56
2023/11/07 03:30:10;;;;;;;603.95;277.88;;;;;;;;;;5014332;28;20229;-56
2023/11/07 03:32:35;;;;;;;635.47;283.90;;;;;;;;;;5014075;28;20037;-55
2023/11/07 03:35:01;;;;;;;590.67;272.63;;;;;;;;;;5015494;28;20124;-56
2023/11/07 03:37:26;;;;;;;653.28;287.63;;;;;;;;;;5017376;28;20045;-56
2023/11/07 03:39:51;;;;;;;566.03;276.77;;;;;;;;;;5019428;28;20079;-56
2023/11/07 03:42:17;;;;;;;610.70;293.90;;;;;;;;;;5017678;28;20291;-55
2023/11/07 03:44:43;;;;;;;604.38;302.35;;;;;;;;;;5017855;28;20512;-56
2023/11/07 03:47:08;;;;;;;681.38;345.35;;;;;;;;;;5017945;28;20519;-56
2023/11/07 03:49:34;;;;;;;718.92;356.10;;;;;;;;;;5017430;28;20021;-56
2023/11/07 03:51:59;;;;;;;647.65;359.08;;;;;;;;;;5017879;28;20048;-55
2023/11/07 03:54:24;;;;;;;700.60;355.30;;;;;;;;;;5015941;28;20221;-56
2023/11/07 03:56:50;;;;;;;657.80;319.30;;;;;;;;;;5018699;28;20045;-55
2023/11/07 03:59:15;;;;;;;570.88;289.02;;;;;;;;;;5019830;28;20180;-57
2023/11/07 04:01:40;;;;;;;596.08;316.95;;;;;;;;;;5017503;28;20083;-57
2023/11/07 04:04:06;;;;;;;663.92;334.67;;;;;;;;;;5017663;28;20493;-55
2023/11/07 04:06:31;;;;;;;710.42;335.05;;;;;;;;;;5017193;28;20413;-56
2023/11/07 04:08:57;;;;;;;589.03;330.35;;;;;;;;;;5018640;28;20018;-56
2023/11/07 04:11:22;;;;;;;635.33;342.92;;;;;;;;;;5016939;28;20038;-56
2023/11/07 04:13:48;;;;;;;612.47;305.98;;;;;;;;;;5017807;28;20052;-56
2023/11/07 04:16:13;;;;;;;603.72;321.63;;;;;;;;;;5017953;28;20190;-56
2023/11/07 04:18:39;;;;;;;656.45;338.40;;;;;;;;;;5017114;28;20199;-57
2023/11/07 04:21:05;;;;;;;620.10;341.00;;;;;;;;;;5018080;28;20041;-56
2023/11/07 04:23:30;;;;;;;707.78;344.08;;;;;;;;;;5018726;28;20243;-56
2023/11/07 04:25:55;;;;;;;652.33;352.80;;;;;;;;;;5016704;28;20064;-55
2023/11/07 04:28:21;;;;;;;635.88;333.98;;;;;;;;;;5018700;28;20017;-55
2023/11/07 04:30:46;;;;;;;584.97;318.30;;;;;;;;;;5018239;28;20033;-56
2023/11/07 04:33:11;;;;;;;623.58;340.05;;;;;;;;;;5016846;28;20034;-57
2023/11/07 04:35:37;;;;;;;633.83;337.88;;;;;;;;;;5016170;28;20037;-56
2023/11/07 04:38:04;;;;;;;610.45;349.65;;;;;;;;;;5018068;28;20013;-55
2023/11/07 04:40:29;;;;;;;769.00;368.42;;;;;;;;;;5015476;28;20041;-55
2023/11/07 04:42:54;;;;;;;615.42;348.17;;;;;;;;;;5017332;28;20024;-55
2023/11/07 04:45:21;;;;;;;610.60;353.58;;;;;;;;;;5015337;28;20105;-55
2023/11/07 04:47:48;;;;;;;686.22;367.50;;;;;;;;;;5015468;28;20030;-56
2023/11/07 04:50:14;;;;;;;628.83;355.08;;;;;;;;;;5017295;28;20026;-56
2023/11/07 04:52:40;;;;;;;632.80;323.27;;;;;;;;;;5015280;28;20048;-56
2023/11/07 04:55:06;;;;;;;653.70;324.80;;;;;;;;;;5017351;28;20033;-56
2023/11/07 04:57:31;;;;;;;620.88;297.02;;;;;;;;;;5016185;28;20049;-56
2023/11/07 04:59:57;;;;;;;579.60;309.67;;;;;;;;;;5018915;28;20491;-56
2023/11/07 05:02:22;;;;;;;701.13;345.92;;;;;;;;;;5015992;28;20406;-56
2023/11/07 05:04:48;;;;;;;604.13;328.77;;;;;;;;;;5017714;28;20527;-55
2023/11/07 05:07:13;;;;;;;578.10;336.30;;;;;;;;;;5017460;28;20187;-56
2023/11/07 05:09:39;;;;;;;716.97;328.45;;;;;;;;;;5015448;28;20294;-56
2023/11/07 05:12:05;;;;;;;547.13;292.13;;;;;;;;;;5016188;28;20034;-56
2023/11/07 05:14:31;;;;;;;609.97;300.00;;;;;;;;;;5016214;28;20044;-56
2023/11/07 05:16:57;;;;;;;663.10;305.10;;;;;;;;;;5016292;28;20060;-56
2023/11/07 05:19:22;;;;;;;612.35;318.50;;;;;;;;;;5016986;28;20460;-56
2023/11/07 05:21:47;;;;;;;590.85;291.27;;;;;;;;;;5015160;28;20045;-56
2023/11/07 05:24:13;;;;;;;673.63;317.63;;;;;;;;;;5015600;28;20535;-56
2023/11/07 05:26:38;;;;;;;657.53;326.52;;;;;;;;;;5014500;28;20088;-57
2023/11/07 05:29:04;;;;;;;616.17;328.48;;;;;;;;;;5016503;28;20022;-57
2023/11/07 05:31:31;;;;;;;686.88;309.80;;;;;;;;;;5013600;28;20044;-56
2023/11/07 05:33:56;;;;;;;597.83;328.30;;;;;;;;;;5016844;28;20179;-56
2023/11/07 05:36:21;;;;;;;606.10;319.02;;;;;;;;;;5015887;28;20152;-57
2023/11/07 05:38:47;;;;;;;650.50;327.02;;;;;;;;;;5015452;28;20495;-56
2023/11/07 05:41:12;;;;;;;592.22;335.30;;;;;;;;;;5015330;28;20525;-57
2023/11/07 05:43:39;;;;;;;650.25;343.50;;;;;;;;;;5015567;28;20441;-57
2023/11/07 05:46:04;;;;;;;608.03;334.45;;;;;;;;;;5014444;28;20037;-56
2023/11/07 05:48:30;;;;;;;666.22;350.75;;;;;;;;;;5014456;28;20028;-57
2023/11/07 05:50:55;;;;;;;589.63;325.63;;;;;;;;;;5014504;28;20064;-57
2023/11/07 05:53:20;;;;;;;681.55;349.70;;;;;;;;;;5017085;28;20112;-59
2023/11/07 05:55:46;;;;;;;598.58;346.73;;;;;;;;;;5014783;28;20040;-57
2023/11/07 05:58:11;;;;;;;633.35;329.73;;;;;;;;;;5013477;28;20065;-57
2023/11/07 06:00:37;;;;;;;665.72;308.77;;;;;;;;;;5009828;28;20045;-57
2023/11/07 06:03:02;;;;;;;573.53;300.05;;;;;;;;;;5010291;28;20392;-57
2023/11/07 06:05:27;;;;;;;616.75;309.20;;;;;;;;;;5012466;28;20041;-57
2023/11/07 06:07:55;;;;;;;572.65;311.58;;;;;;;;;;5017265;28;20021;-57
2023/11/07 06:10:24;;;;;;;576.55;305.25;;;;;;;;;;5014724;28;20096;-57
2023/11/07 06:12:49;;;;;;;658.25;316.85;;;;;;;;;;5014867;28;20029;-57
2023/11/07 06:15:14;;;;;;;544.47;309.02;;;;;;;;;;5015948;28;20336;-58
2023/11/07 06:17:40;;;;;;;626.15;347.52;;;;;;;;;;5015039;28;20113;-56
2023/11/07 06:20:05;;;;;;;676.92;357.33;;;;;;;;;;5015354;28;20052;-57
2023/11/07 06:22:30;;;;;;;636.47;347.67;;;;;;;;;;5015222;28;20566;-58
2023/11/07 06:24:56;;;;;;;593.65;352.50;;;;;;;;;;5016938;28;20067;-58
2023/11/07 06:27:21;;;;;;;696.90;361.83;;;;;;;;;;5014468;28;20022;-59
2023/11/07 06:29:47;;;;;;;610.25;348.27;;;;;;;;;;5015247;28;20018;-60
2023/11/07 06:32:13;;;;;;;590.78;348.65;;;;;;;;;;5016354;28;20280;-59
2023/11/07 06:34:40;;;;;;;710.60;360.48;;;;;;;;;;5014602;28;20101;-58
2023/11/07 06:37:06;;;;;;;617.58;352.55;;;;;;;;;;5014583;28;20041;-57
2023/11/07 06:39:31;;;;;;;733.35;370.17;;;;;;;;;;5015109;28;20029;-57
2023/11/07 06:41:56;;;;;;;645.70;368.80;;;;;;;;;;5016700;28;20075;-57
2023/11/07 06:44:22;;;;;;;635.80;376.75;;;;;;;;;;5014449;28;20515;-57
2023/11/07 06:46:51;;;;;;;608.03;376.27;;;;;;;;;;5014463;28;20038;-58
2023/11/07 06:49:16;;;;;;;619.97;345.05;;;;;;;;;;5016220;28;20044;-58
2023/11/07 06:51:41;;;;;;;661.95;355.13;;;;;;;;;;5014532;28;20049;-57
2023/11/07 06:54:08;;;;;;;656.55;313.98;;;;;;;;;;5016250;28;20065;-58
2023/11/07 06:56:34;;;;;;;665.67;332.27;;;;;;;;;;5015297;28;20114;-58
2023/11/07 06:58:59;;;;;;;572.80;334.65;;;;;;;;;;5015973;28;20489;-58
2023/11/07 07:01:25;;;;;;;646.08;344.10;;;;;;;;;;5015270;28;20505;-59
2023/11/07 07:03:51;;;;;;;600.15;326.23;;;;;;;;;;5016353;28;20025;-58
2023/11/07 07:06:18;;;;;;;558.00;328.30;;;;;;;;;;5015853;28;20026;-58
2023/11/07 07:08:43;;;;;;;658.22;346.05;;;;;;;;;;5015091;28;20017;-58
2023/11/07 07:11:09;;;;;;;606.58;352.30;;;;;;;;;;5018172;28;20083;-59
2023/11/07 07:13:34;;;;;;;693.13;357.63;;;;;;;;;;5019310;28;20025;-59
2023/11/07 07:15:59;;;;;;;670.53;360.70;;;;;;;;;;5019589;28;20026;-59
2023/11/07 07:18:27;;;;;;;645.42;354.30;;;;;;;;;;5019665;28;20428;-58
2023/11/07 07:32:22;;;;;;;105.97;7.13;;;;;;;;;;5058952;27;20405;-55
2023/11/07 07:34:49;;;;;;;125.65;7.18;;;;;;;;;;5049992;28;20044;-55
2023/11/07 07:37:14;;;;;;;94.07;6.40;;;;;;;;;;5051668;28;20032;-56
2023/11/07 07:39:44;;;;;;;140.33;8.20;;;;;;;;;;5049860;28;20030;-56
2023/11/07 07:42:09;;;;;;;121.88;7.10;;;;;;;;;;5050429;28;20385;-57
2023/11/07 07:44:35;;;;;;;141.80;8.17;;;;;;;;;;5051341;28;20092;-55
2023/11/07 07:47:01;;;;;;;122.30;6.85;;;;;;;;;;5051008;28;20268;-57
2023/11/07 07:49:26;;;;;;;119.68;6.70;;;;;;;;;;5051052;28;20039;-57
2023/11/07 07:51:52;;;;;;;91.57;5.47;;;;;;;;;;5049336;28;20100;-55
2023/11/07 07:54:22;;;;;;;127.53;6.88;;;;;;;;;;5051941;28;20139;-56
2023/11/07 07:56:48;;;;;;;131.30;7.72;;;;;;;;;;5052398;28;20032;-54
2023/11/07 07:59:13;;;;;;;95.28;5.97;;;;;;;;;;5052314;28;20440;-57
2023/11/07 08:01:39;;;;;;;223.50;11.13;;;;;;;;;;5045916;28;20528;-60
2023/11/07 08:04:04;;;;;;;92.18;7.13;;;;;;;;;;5056001;28;20408;-58
2023/11/07 08:06:30;;;;;;;85.57;5.03;;;;;;;;;;5055251;28;20132;-56
2023/11/07 08:08:57;;;;;;;99.07;5.65;;;;;;;;;;5056558;28;20032;-56
2023/11/07 08:11:22;;;;;;;70.32;4.05;;;;;;;;;;5054712;28;20028;-55
2023/11/07 08:13:47;;;;;;;82.50;4.90;;;;;;;;;;5053464;28;20058;-58
2023/11/07 08:16:13;;;;;;;68.15;4.43;;;;;;;;;;5055962;28;20094;-56
2023/11/07 08:18:38;;;;;;;97.40;5.93;;;;;;;;;;5052946;28;20394;-56
2023/11/07 08:21:05;;;;;;;93.77;5.23;;;;;;;;;;5046230;28;20288;-56
2023/11/07 08:23:30;;;;;;;120.57;6.50;;;;;;;;;;5030758;28;20321;-57
2023/11/07 08:25:56;;;;;;;104.07;6.00;;;;;;;;;;5028801;28;20037;-56
2023/11/07 08:28:21;;;;;;;94.90;5.25;;;;;;;;;;5024057;28;20074;-57
2023/11/07 08:30:47;;;;;;;108.85;6.15;;;;;;;;;;5030261;28;20615;-55
2023/11/07 08:33:12;;;;;;;54.03;3.78;;;;;;;;;;5043661;28;20017;-54
2023/11/07 08:35:38;;;;;;;143.77;7.97;;;;;;;;;;5036041;28;20525;-55
2023/11/07 08:38:04;;;;;;;60.20;4.15;;;;;;;;;;5015495;28;20582;-58
2023/11/07 08:40:29;;;;;;;97.47;5.60;;;;;;;;;;5022523;28;20029;-57
2023/11/07 08:42:55;;;;;;;122.97;8.50;;;;;;;;;;5016121;28;20057;-56
2023/11/07 08:45:21;;;;;;;72.43;4.47;;;;;;;;;;5020896;28;20025;-57
2023/11/07 08:47:54;;;;;;;123.68;7.43;;;;;;;;;;5040490;28;20390;-57
2023/11/07 08:50:20;;;;;;;102.88;5.68;;;;;;;;;;5039463;28;20133;-55
2023/11/07 08:52:49;;;;;;;128.52;7.18;;;;;;;;;;5041194;28;20267;-57
2023/11/07 08:55:16;;;;;;;82.97;5.90;;;;;;;;;;5040277;28;20032;-57
2023/11/07 08:57:42;;;;;;;151.43;8.43;;;;;;;;;;5040537;28;20732;-57
2023/11/07 09:00:21;;;;;;;80.05;4.70;;;;;;;;;;5041117;28;20923;-56
2023/11/07 09:02:46;;;;;;;139.50;7.63;;;;;;;;;;5040289;28;20437;-57
2023/11/07 09:05:12;;;;;;;72.68;6.00;;;;;;;;;;5040295;28;20360;-57
2023/11/07 09:07:37;;;;;;;129.32;7.13;;;;;;;;;;5038346;28;20281;-57
2023/11/07 09:10:03;;;;;;;72.22;4.78;;;;;;;;;;5040720;28;20028;-57
2023/11/07 09:12:29;;;;;;;96.88;5.30;;;;;;;;;;5039587;28;20029;-57
2023/11/07 09:14:54;;;;;;;105.90;5.97;;;;;;;;;;5039473;28;20037;-57
2023/11/07 09:17:20;;;;;;;105.60;9.40;;;;;;;;;;5039262;28;20032;-57
2023/11/07 09:19:46;;;;;;;90.30;5.22;;;;;;;;;;5040231;28;20251;-56
2023/11/07 09:22:11;;;;;;;91.75;5.45;;;;;;;;;;5037871;28;20035;-56
2023/11/07 09:24:37;;;;;;;160.10;17.67;;;;;;;;;;5039403;28;20017;-57
2023/11/07 09:27:02;;;;;;;94.05;11.07;;;;;;;;;;5020254;28;20262;-57
2023/11/07 09:29:28;;;;;;;161.88;16.27;;;;;;;;;;5014198;28;20021;-56
2023/11/07 09:31:53;;;;;;;77.88;7.82;;;;;;;;;;5008653;28;20056;-56
2023/11/07 09:34:21;;;;;;;87.95;6.20;;;;;;;;;;5011834;28;20025;-58
2023/11/07 09:36:47;;;;;;;318.13;83.20;;;;;;;;;;5008882;28;20025;-57
2023/11/07 09:39:12;;;;;;;83.75;4.85;;;;;;;;;;5009153;28;20383;-56
2023/11/07 09:41:41;;;;;;;154.38;10.98;;;;;;;;;;5007502;28;20249;-58
2023/11/07 09:44:06;;;;;;;91.90;5.55;;;;;;;;;;5007416;28;20541;-57
2023/11/07 09:46:32;;;;;;;79.20;5.57;;;;;;;;;;5009588;28;20098;-56
2023/11/07 09:48:58;;;;;;;76.35;4.60;;;;;;;;;;5007310;28;20072;-57
2023/11/07 09:51:25;;;;;;;88.93;6.88;;;;;;;;;;5007157;28;20049;-55
2023/11/07 09:53:51;;;;;;;88.60;5.25;;;;;;;;;;5007361;28;20095;-57
2023/11/07 09:56:17;;;;;;;83.13;5.07;;;;;;;;;;5007481;28;20044;-57
2023/11/07 09:58:45;;;;;;;103.38;6.07;;;;;;;;;;5009273;28;20030;-59
2023/11/07 10:01:10;;;;;;;114.32;11.02;;;;;;;;;;5008508;28;20388;-56
2023/11/07 10:03:36;;;;;;;114.77;7.13;;;;;;;;;;5007381;28;20021;-56
2023/11/07 10:06:01;;;;;;;80.63;4.82;;;;;;;;;;5007274;28;20692;-56
2023/11/07 10:08:27;;;;;;;115.30;6.32;;;;;;;;;;5007880;28;20014;-55
2023/11/07 10:11:08;;;;;;;156.32;8.38;;;;;;;;;;5006327;28;20117;-58
2023/11/07 10:13:33;;;;;;;62.58;4.15;;;;;;;;;;5008464;28;20024;-55
2023/11/07 10:16:06;;;;;;;103.18;9.90;;;;;;;;;;5007161;28;20038;-56
2023/11/07 10:18:44;;;;;;;94.18;5.63;;;;;;;;;;5007483;28;20052;-56
2023/11/07 10:21:11;;;;;;;123.72;8.63;;;;;;;;;;5004516;28;20038;-56
2023/11/07 10:23:37;;;;;;;82.78;4.95;;;;;;;;;;5005510;28;20084;-56
2023/11/07 10:26:09;;;;;;;84.28;4.80;;;;;;;;;;5016997;28;20033;-58
2023/11/07 10:28:34;;;;;;;110.72;6.15;;;;;;;;;;5032690;28;20087;-58
2023/11/07 10:31:00;;;;;;;112.77;6.73;;;;;;;;;;5024254;28;20356;-58
2023/11/07 10:33:29;;;;;;;111.37;6.10;;;;;;;;;;5004658;28;20256;-56
2023/11/07 10:35:56;;;;;;;127.93;7.55;;;;;;;;;;5017607;28;20870;-56
2023/11/07 10:38:24;;;;;;;103.22;8.82;;;;;;;;;;5038614;28;20067;-56
2023/11/07 10:40:50;;;;;;;148.30;10.23;;;;;;;;;;5031303;28;20506;-57
2023/11/07 10:43:35;;;;;;;81.32;5.13;;;;;;;;;;5018989;28;20029;-57
2023/11/07 10:46:18;;;;;;;121.13;10.48;;;;;;;;;;5003010;28;20041;-57
2023/11/07 10:48:44;;;;;;;120.03;6.57;;;;;;;;;;5006120;28;20026;-57
2023/11/07 10:51:10;;;;;;;114.10;6.22;;;;;;;;;;5010278;28;20121;-56
2023/11/07 10:53:36;;;;;;;98.57;7.68;;;;;;;;;;5019200;28;20063;-56
2023/11/07 10:56:08;;;;;;;78.35;8.10;;;;;;;;;;5019888;28;20904;-56
2023/11/07 10:58:35;;;;;;;80.20;4.45;;;;;;;;;;5019367;28;20021;-57
2023/11/07 11:01:01;;;;;;;149.40;20.00;;;;;;;;;;5018426;28;20107;-57
2023/11/07 11:03:28;;;;;;;99.50;5.60;;;;;;;;;;5017621;28;20022;-57
2023/11/07 11:05:54;;;;;;;96.60;5.57;;;;;;;;;;5018529;28;20102;-57
2023/11/07 11:08:22;;;;;;;94.00;8.18;;;;;;;;;;5019063;28;20017;-57
2023/11/07 11:10:48;;;;;;;164.27;13.57;;;;;;;;;;5015104;28;20045;-57
2023/11/07 11:13:15;;;;;;;68.50;4.10;;;;;;;;;;5018945;28;20036;-55
2023/11/07 11:15:41;;;;;;;112.63;6.15;;;;;;;;;;5017422;28;20033;-56
2023/11/07 11:18:08;;;;;;;94.78;5.20;;;;;;;;;;5021197;28;20328;-57
2023/11/07 11:20:34;;;;;;;83.57;5.00;;;;;;;;;;5017499;28;20117;-56
2023/11/07 11:23:30;;;;;;;73.05;4.10;;;;;;;;;;5018907;28;20010;-57
2023/11/07 11:25:55;;;;;;;128.82;7.32;;;;;;;;;;5020840;28;20521;-55
2023/11/07 11:28:35;;;;;;;198.43;48.22;;;;;;;;;;5036796;28;20177;-56
2023/11/07 11:31:02;;;;;;;107.97;7.10;;;;;;;;;;5036491;28;20053;-56
2023/11/07 11:33:27;;;;;;;115.05;6.30;;;;;;;;;;5038393;28;20062;-54
2023/11/07 11:35:54;;;;;;;117.33;8.53;;;;;;;;;;5037256;28;20294;-54
2023/11/07 11:38:19;;;;;;;80.63;4.63;;;;;;;;;;5040131;28;20747;-56
2023/11/07 11:40:45;;;;;;;133.23;7.32;;;;;;;;;;5036204;28;20045;-56
2023/11/07 11:43:11;;;;;;;70.43;4.00;;;;;;;;;;5037870;28;20016;-54
2023/11/07 11:45:38;;;;;;;93.75;6.30;;;;;;;;;;5034252;28;20303;-56
2023/11/07 11:48:04;;;;;;;128.10;6.78;;;;;;;;;;5015325;28;20058;-57
2023/11/07 11:50:29;;;;;;;90.90;5.57;;;;;;;;;;5018555;28;20068;-55
2023/11/07 11:52:54;;;;;;;122.38;6.65;;;;;;;;;;5036661;28;20448;-55
2023/11/07 11:55:20;;;;;;;102.40;5.97;;;;;;;;;;5035872;28;20025;-56
2023/11/07 11:58:15;;;;;;;114.88;7.30;;;;;;;;;;5039997;28;20013;-57
2023/11/07 12:00:44;;;;;;;103.53;7.05;;;;;;;;;;5034965;28;20569;-55
2023/11/07 12:03:15;;;;;;;84.07;5.05;;;;;;;;;;5037092;28;20114;-56
2023/11/07 12:05:41;;;;;;;129.63;7.18;;;;;;;;;;5037939;28;20535;-54
2023/11/07 12:08:25;;;;;;;105.70;8.68;;;;;;;;;;5040477;28;20134;-56
2023/11/07 12:10:56;;;;;;;140.15;9.20;;;;;;;;;;5033595;28;20199;-56
2023/11/07 12:13:25;;;;;;;71.83;4.40;;;;;;;;;;5020561;28;20051;-56
2023/11/07 12:15:51;;;;;;;114.63;6.32;;;;;;;;;;5021148;28;20029;-57
2023/11/07 12:18:20;;;;;;;68.13;4.28;;;;;;;;;;5019894;28;20208;-57
2023/11/07 12:20:45;;;;;;;116.00;6.53;;;;;;;;;;5024217;28;20034;-57
2023/11/07 12:23:14;;;;;;;118.68;6.55;;;;;;;;;;5041022;28;20027;-57
2023/11/07 12:25:50;;;;;;;54.45;4.80;;;;;;;;;;5039377;28;20044;-56
2023/11/07 12:28:15;;;;;;;86.57;4.95;;;;;;;;;;5036286;28;20016;-58
2023/11/07 12:30:40;;;;;;;92.53;5.18;;;;;;;;;;5035130;28;20044;-56
2023/11/07 12:33:08;;;;;;;111.67;9.97;;;;;;;;;;5039491;28;20029;-56
2023/11/07 12:35:34;;;;;;;182.60;17.90;;;;;;;;;;5040047;28;20322;-56
2023/11/07 12:38:05;;;;;;;93.40;5.18;;;;;;;;;;5040226;28;20476;-56
2023/11/07 12:40:31;;;;;;;76.03;4.38;;;;;;;;;;5039279;28;20040;-56
2023/11/07 12:42:56;;;;;;;137.52;7.55;;;;;;;;;;5038885;28;20148;-57
2023/11/07 12:45:25;;;;;;;77.03;4.55;;;;;;;;;;5040285;28;20108;-56
2023/11/07 12:48:13;;;;;;;120.97;6.35;;;;;;;;;;5043429;28;20017;-56
2023/11/07 12:50:46;;;;;;;66.80;3.95;;;;;;;;;;5041413;28;20033;-56
2023/11/07 12:53:15;;;;;;;91.65;5.22;;;;;;;;;;5043541;28;20031;-57
2023/11/07 12:55:49;;;;;;;97.47;9.25;;;;;;;;;;5036412;28;20041;-54
2023/11/07 12:58:24;;;;;;;65.95;3.80;;;;;;;;;;5017119;28;20083;-56
2023/11/07 13:00:58;;;;;;;122.97;7.10;;;;;;;;;;5021548;28;20044;-55
2023/11/07 13:03:25;;;;;;;68.90;3.97;;;;;;;;;;5041498;28;20028;-55
2023/11/07 13:05:57;;;;;;;98.93;5.63;;;;;;;;;;5042925;28;20040;-55
2023/11/07 13:08:29;;;;;;;57.55;3.65;;;;;;;;;;5042810;28;20603;-56
2023/11/07 13:11:06;;;;;;;113.43;6.13;;;;;;;;;;5040684;28;20753;-55
2023/11/07 13:13:31;;;;;;;45.30;3.00;;;;;;;;;;5041573;28;20573;-55
2023/11/07 13:15:56;;;;;;;159.73;8.97;;;;;;;;;;5041867;28;20037;-55
2023/11/07 13:18:22;;;;;;;50.97;3.20;;;;;;;;;;5043207;28;20259;-56
2023/11/07 13:20:47;;;;;;;91.25;5.45;;;;;;;;;;5040456;28;20284;-56
2023/11/07 13:23:13;;;;;;;84.40;5.00;;;;;;;;;;5040777;28;20021;-55
2023/11/07 13:25:38;;;;;;;78.28;4.60;;;;;;;;;;5042089;28;20033;-55
2023/11/07 13:28:05;;;;;;;59.28;4.18;;;;;;;;;;5039997;28;20080;-55
2023/11/07 13:30:30;;;;;;;86.35;5.35;;;;;;;;;;5042163;28;20562;-55
2023/11/07 13:32:55;;;;;;;89.17;5.73;;;;;;;;;;5043642;28;20040;-56
2023/11/07 13:35:21;;;;;;;61.97;4.38;;;;;;;;;;5041850;28;20745;-58
2023/11/07 13:37:46;;;;;;;81.63;5.07;;;;;;;;;;5041663;28;20044;-55
2023/11/07 13:40:11;;;;;;;32.65;2.95;;;;;;;;;;5043236;28;20083;-54
2023/11/07 13:42:37;;;;;;;73.18;4.40;;;;;;;;;;5042669;28;20095;-54
2023/11/07 13:45:04;;;;;;;110.93;6.67;;;;;;;;;;5043289;28;20452;-55
2023/11/07 13:47:29;;;;;;;67.57;4.30;;;;;;;;;;5041404;28;20605;-54
2023/11/07 13:49:54;;;;;;;125.85;7.28;;;;;;;;;;5040925;28;20620;-57
2023/11/07 13:52:20;;;;;;;55.10;3.60;;;;;;;;;;5040108;28;20033;-55
2023/11/07 13:54:45;;;;;;;67.13;4.32;;;;;;;;;;5042014;28;20288;-55
2023/11/07 13:57:11;;;;;;;75.65;4.60;;;;;;;;;;5015692;28;20033;-55
2023/11/07 13:59:37;;;;;;;74.55;4.30;;;;;;;;;;5018311;28;20072;-56
2023/11/07 14:02:03;;;;;;;97.82;5.50;;;;;;;;;;5034529;28;20036;-55
2023/11/07 14:04:28;;;;;;;106.25;5.82;;;;;;;;;;5040757;28;20059;-56
2023/11/07 14:06:54;;;;;;;112.80;7.97;;;;;;;;;;5022196;28;20119;-55
2023/11/07 14:09:19;;;;;;;54.33;3.70;;;;;;;;;;5018209;28;20504;-56
2023/11/07 14:11:44;;;;;;;82.78;4.70;;;;;;;;;;5031835;28;20508;-56
2023/11/07 14:14:10;;;;;;;46.17;3.20;;;;;;;;;;5041662;28;20397;-56